• Join FlightAware (Why Join?)
  • Login
  • US Flag 
01:31AM EDT


 

Airport Tracker/Info


-or-


 

Live Flight TrackerFlight Track Log ✈ CDG4879 ✈ 10-Jun-2014 ✈ ZSWY / WUS - ZLXY / XIY

Flight Track Log - Related Links

Times and Time Zones

All times are in EDT time to prevent confusion due to time zone crossing. See the CDG4879 flight status page for this flight to view local times or setup timezone preferences in your user account.

Time Position Orientation Groundspeed Altitude Reporting Facility
EDT Latitude Longitude Course Direction KTS MPH feet Rate Location/Type
11:45PM 27.9687 117.6739 313° West  Level Estimated
11:46PM 28.0220 117.6082 313° West  Level Estimated
11:47PM 28.0752 117.5424 313° West  Level Estimated
11:48PM 28.1284 117.4766 313° West  Level Estimated
11:49PM 28.1816 117.4107 312° West  Level Estimated
11:50PM 28.2347 117.3448 312° West  Level Estimated
11:51PM 28.2878 117.2788 312° West  Level Estimated
11:52PM 28.3409 117.2127 312° West  Level Estimated
11:53PM 28.3940 117.1465 312° West  Level Estimated
11:54PM 28.4470 117.0803 312° West  Level Estimated
11:55PM 28.5000 117.0140 312° West  Level Estimated
11:56PM 28.5529 116.9477 312° West  Level Estimated
11:57PM 28.6058 116.8813 312° West  Level Estimated
11:58PM 28.6587 116.8148 312° West  Level Estimated
11:59PM 28.7115 116.7482 312° West  Level Estimated
12:00AM 28.7644 116.6816 312° West  Level Estimated
12:01AM 28.8171 116.6149 312° West  Level Estimated
12:02AM 28.8699 116.5482 312° West  Level Estimated
12:03AM 28.9226 116.4814 312° West  Level Estimated
12:04AM 28.9753 116.4145 312° West  Level Estimated
12:05AM 29.0280 116.3475 312° West  Level Estimated
12:06AM 29.0806 116.2805 312° West  Level Estimated
12:07AM 29.1332 116.2134 312° West  Level Estimated
12:08AM 29.1857 116.1462 312° West  Level Estimated
12:09AM 29.2382 116.0790 312° West  Level Estimated
12:10AM 29.2907 116.0117 312° West  Level Estimated
12:11AM 29.3432 115.9443 312° West  Level Estimated
12:12AM 29.3956 115.8769 312° West  Level Estimated
12:13AM 29.4480 115.8094 312° West  Level Estimated
12:14AM 29.5003 115.7418 312° West  Level Estimated
12:15AM 29.5526 115.6741 312° West  Level Estimated
12:16AM 29.6049 115.6064 312° West  Level Estimated
12:17AM 29.6572 115.5387 312° West  Level Estimated
12:18AM 29.7094 115.4708 312° West  Level Estimated
12:19AM 29.7616 115.4029 312° West  Level Estimated
12:20AM 29.8137 115.3349 311° West  Level Estimated
12:21AM 29.8658 115.2668 311° West  Level Estimated
12:22AM 29.9179 115.1986 311° West  Level Estimated
12:23AM 29.9699 115.1304 311° West  Level Estimated
12:24AM 30.0219 115.0621 311° West  Level Estimated
12:25AM 30.0739 114.9938 311° West  Level Estimated
12:26AM 30.1258 114.9254 311° West  Level Estimated
12:27AM 30.1777 114.8569 311° West  Level Estimated
12:28AM 30.2296 114.7883 311° West  Level Estimated
12:29AM 30.2814 114.7197 311° West  Level Estimated
12:30AM 30.3332 114.6509 311° West  Level Estimated
12:31AM 30.3849 114.5821 311° West  Level Estimated
12:32AM 30.4366 114.5133 311° West  Level Estimated
12:33AM 30.4883 114.4443 311° West  Level Estimated
12:34AM 30.5400 114.3753 311° West  Level Estimated
12:35AM 30.5916 114.3063 311° West  Level Estimated
12:36AM 30.6432 114.2371 311° West  Level Estimated
12:37AM 30.6947 114.1679 311° West  Level Estimated
12:38AM 30.7462 114.0986 311° West  Level Estimated
12:39AM 30.7976 114.0292 311° West  Level Estimated
12:40AM 30.8491 113.9597 311° West  Level Estimated
12:41AM 30.9005 113.8902 311° West  Level Estimated
12:42AM 30.9518 113.8206 311° West  Level Estimated
12:43AM 31.0031 113.7509 311° West  Level Estimated
12:44AM 31.0544 113.6812 311° West  Level Estimated
12:45AM 31.1056 113.6114 311° West  Level Estimated
12:46AM 31.1568 113.5415 311° West  Level Estimated
12:47AM 31.2080 113.4715 311° West  Level Estimated
12:48AM 31.2591 113.4014 310° West  Level Estimated
12:49AM 31.3102 113.3313 310° West  Level Estimated
12:50AM 31.3613 113.2611 310° West  Level Estimated
12:51AM 31.4123 113.1908 310° West  Level Estimated
12:52AM 31.4632 113.1205 310° West  Level Estimated
12:53AM 31.5142 113.0500 310° West  Level Estimated
12:54AM 31.5651 112.9795 310° West  Level Estimated
12:55AM 31.6159 112.9089 310° West  Level Estimated
12:56AM 31.6667 112.8382 310° West  Level Estimated
12:57AM 31.7175 112.7675 310° West  Level Estimated
12:58AM 31.7683 112.6967 310° West  Level Estimated
12:59AM 31.8190 112.6258 310° West  Level Estimated
01:00AM 31.8696 112.5548 310° West  Level Estimated
01:01AM 31.9202 112.4838 310° West  Level Estimated
01:02AM 31.9708 112.4126 310° West  Level Estimated
01:03AM 32.0214 112.3414 310° West  Level Estimated
01:04AM 32.0719 112.2701 310° West  Level Estimated
01:05AM 32.1223 112.1988 310° West  Level Estimated
01:06AM 32.1727 112.1273 310° West  Level Estimated
01:07AM 32.2231 112.0558 310° West  Level Estimated
01:08AM 32.2735 111.9842 310° West  Level Estimated
01:09AM 32.3238 111.9125 310° West  Level Estimated
01:10AM 32.3740 111.8407 310° West  Level Estimated
01:11AM 32.4243 111.7689 310° West  Level Estimated
01:12AM 32.4744 111.6970 310° West  Level Estimated
01:13AM 32.5246 111.6250 310° West  Level Estimated
01:14AM 32.5747 111.5529 310° West  Level Estimated
01:15AM 32.6247 111.4807 309° West  Level Estimated
01:16AM 32.6747 111.4085 309° West  Level Estimated
01:17AM 32.7247 111.3361 309° West  Level Estimated
01:18AM 32.7746 111.2637 309° West  Level Estimated
01:19AM 32.8245 111.1913 309° West  Level Estimated
01:20AM 32.8744 111.1187 309° West  Level Estimated
01:21AM 32.9242 111.0460 309° West  Level Estimated
01:22AM 32.9739 110.9733 309° West  Level Estimated
01:23AM 33.0237 110.9005 309° West  Level Estimated
01:24AM 33.0733 110.8276 309° West  Level Estimated
01:25AM 33.1230 110.7546 309° West  Level Estimated
01:26AM 33.1726 110.6815 309° West  Level Estimated
01:27AM 33.2221 110.6084 309° West  Level Estimated
01:28AM 33.2716 110.5352 309° West  Level Estimated
01:29AM 33.3211 110.4619 309° West  Level Estimated
01:30AM 33.3705 110.3885 309° West  Level Estimated
01:31AM 33.4199 110.3150 309° West  Level Estimated
01:32AM 33.4692 110.2414 309° West  Level Estimated
01:33AM 33.5185 110.1678 309° West  Level Estimated
01:34AM 33.5678 110.0940 309° West  Level Estimated
01:35AM 33.6170 110.0202 309° West  Level Estimated
01:36AM 33.6661 109.9463 309° West  Level Estimated
01:37AM 33.7152 109.8724 309° West  Level Estimated
01:38AM 33.7643 109.7983 309° West  Level Estimated
01:39AM 33.8134 109.7241 309° West  Level Estimated
01:40AM 33.8623 109.6499 308° West  Level Estimated
01:41AM 33.9113 109.5756 308° West  Level Estimated
01:42AM 33.9602 109.5012 308° West  Level Estimated
01:43AM 34.0090 109.4267 308° West  Level Estimated
01:44AM 34.0578 109.3521 308° West  Level Estimated
01:45AM 34.1066 109.2774 308° West  Level Estimated
01:46AM 34.1553 109.2027 308° West  Level Estimated
01:47AM 34.2040 109.1278 308° West  Level Estimated
01:48AM 34.2526 109.0529 308° West  Level Estimated
01:49AM 34.3012 108.9779 308° West  Level Estimated
01:50AM 34.3497 108.9028 308° West  Level Estimated
01:51AM 34.3982 108.8276 308° West  Level Estimated
01:52AM 34.4466 108.7524 308° West  Level Estimated